Time;durP1;ratioP1;P1;durP2;ratioP2;P2;SDS_P1;SDS_P2;PMS_P1;PMS_P2;Temp;Humidity;BMP_temperature;BMP_pressure;BME280_temperature;BME280_humidity;BME280_pressure;Samples;Min_cycle;Max_cycle;Signal;HPM_P1;HPM_P2
2020/12/18 00:02:07;;;;;;;3.33;3.07;;;;;;;7.48;100.00;100947.69;5099177;28;20203;-36
2020/12/18 00:05:01;;;;;;;5.67;3.30;;;;;;;7.61;100.00;100952.16;5099294;28;20202;-38
2020/12/18 00:07:46;;;;;;;7.63;3.60;;;;;;;7.56;100.00;100948.69;5099499;28;20673;-36
2020/12/18 00:10:32;;;;;;;4.17;3.40;;;;;;;7.49;100.00;100941.69;5099386;28;20477;-35
2020/12/18 00:13:23;;;;;;;6.90;3.40;;;;;;;7.51;100.00;100939.16;5098872;28;20280;-37
2020/12/18 00:16:17;;;;;;;8.80;3.97;;;;;;;7.44;100.00;100939.91;5099382;28;20199;-34
2020/12/18 00:19:07;;;;;;;9.97;4.13;;;;;;;7.38;100.00;100939.81;5098981;28;20623;-36
2020/12/18 00:21:55;;;;;;;8.63;3.33;;;;;;;7.50;100.00;100940.84;5099397;28;20199;-32
2020/12/18 00:24:43;;;;;;;9.97;4.73;;;;;;;7.50;100.00;100940.84;5098929;28;20199;-35
2020/12/18 00:27:29;;;;;;;5.67;3.67;;;;;;;7.44;100.00;100942.47;5099144;28;20203;-37
2020/12/18 00:30:15;;;;;;;7.13;4.23;;;;;;;7.36;100.00;100944.09;5098670;28;20282;-37
2020/12/18 00:33:02;;;;;;;9.27;4.13;;;;;;;7.37;100.00;100945.81;5098749;28;20507;-36
2020/12/18 00:35:49;;;;;;;6.17;4.00;;;;;;;7.82;100.00;100943.88;5098876;28;20623;-38
2020/12/18 00:38:35;;;;;;;6.63;4.30;;;;;;;7.64;100.00;100947.91;5097990;28;20716;-36
2020/12/18 00:41:21;;;;;;;8.33;3.67;;;;;;;7.45;100.00;100941.63;5098701;28;20198;-38
2020/12/18 00:44:08;;;;;;;5.83;4.30;;;;;;;7.36;100.00;100939.81;5098688;28;20192;-34
2020/12/18 00:46:55;;;;;;;4.67;3.90;;;;;;;7.40;100.00;100946.69;5098795;28;20280;-36
2020/12/18 00:49:41;;;;;;;7.13;4.60;;;;;;;7.46;100.00;100940.78;5098467;28;20245;-36
2020/12/18 00:52:36;;;;;;;7.57;4.17;;;;;;;7.57;100.00;100953.00;5098738;28;20360;-36
2020/12/18 00:55:22;;;;;;;6.13;4.27;;;;;;;7.30;100.00;100951.69;5098542;28;20199;-33
2020/12/18 00:58:07;;;;;;;6.10;4.03;;;;;;;7.44;100.00;100956.19;5098492;28;20280;-34
2020/12/18 01:00:53;;;;;;;7.23;4.07;;;;;;;7.53;100.00;100956.34;5098577;28;20222;-35
2020/12/18 01:03:40;;;;;;;5.90;3.80;;;;;;;7.61;100.00;100959.03;5098083;28;20190;-35
2020/12/18 01:06:27;;;;;;;4.43;3.67;;;;;;;7.49;100.00;100954.56;5098409;28;20239;-34
2020/12/18 01:09:13;;;;;;;9.27;5.33;;;;;;;7.69;100.00;100949.72;5098310;28;20202;-39
2020/12/18 01:11:59;;;;;;;6.10;4.00;;;;;;;7.60;100.00;100947.84;5098266;28;20450;-37
2020/12/18 01:14:45;;;;;;;7.80;4.50;;;;;;;7.69;100.00;100951.41;5098076;28;20200;-35
2020/12/18 01:17:33;;;;;;;4.43;4.00;;;;;;;7.92;100.00;100947.44;5097846;28;20532;-35
2020/12/18 01:20:28;;;;;;;4.50;4.10;;;;;;;7.64;100.00;100947.91;5098379;28;20200;-37
2020/12/18 01:23:15;;;;;;;10.47;4.40;;;;;;;7.57;100.00;100949.56;5097627;28;20211;-34
2020/12/18 01:26:00;;;;;;;9.43;4.50;;;;;;;7.67;100.00;100953.97;5097906;28;20256;-36
2020/12/18 01:28:46;;;;;;;7.47;4.20;;;;;;;7.67;100.00;100953.97;5098110;28;20235;-33
2020/12/18 01:31:31;;;;;;;7.00;4.13;;;;;;;7.49;100.00;100951.13;5097682;28;20305;-33
2020/12/18 01:34:17;;;;;;;7.63;3.77;;;;;;;7.61;100.00;100954.75;5097640;28;20330;-36
2020/12/18 01:37:03;;;;;;;5.33;4.07;;;;;;;7.46;100.00;100956.22;5097884;28;20199;-38
2020/12/18 01:39:50;;;;;;;6.43;4.27;;;;;;;7.69;100.00;100962.59;5097705;28;20324;-35
2020/12/18 01:42:35;;;;;;;6.77;4.50;;;;;;;7.72;100.00;100961.78;5097933;28;20199;-33
2020/12/18 01:45:21;;;;;;;5.13;3.70;;;;;;;7.54;100.00;100952.94;5097730;28;20261;-34
2020/12/18 01:48:07;;;;;;;7.03;4.40;;;;;;;7.65;100.00;100960.81;5097591;28;20315;-34
2020/12/18 01:50:54;;;;;;;7.13;4.30;;;;;;;7.61;100.00;100962.47;5097435;28;20199;-34
2020/12/18 01:53:41;;;;;;;4.57;4.17;;;;;;;7.54;100.00;100959.78;5097278;28;20222;-35
2020/12/18 01:56:28;;;;;;;8.37;4.03;;;;;;;7.61;100.00;100957.31;5097436;28;20481;-33
2020/12/18 01:59:19;;;;;;;7.20;4.03;;;;;;;7.72;100.00;100962.63;5097784;28;20257;-35
2020/12/18 02:02:05;;;;;;;5.60;4.13;;;;;;;7.65;100.00;100960.81;5097622;28;20285;-33
2020/12/18 02:04:50;;;;;;;9.77;4.67;;;;;;;7.46;100.00;100959.66;5097013;28;20191;-36
2020/12/18 02:07:37;;;;;;;6.70;4.03;;;;;;;7.70;100.00;100966.91;5097533;28;20618;-35
2020/12/18 02:10:23;;;;;;;5.27;4.03;;;;;;;7.71;100.00;100958.31;5097364;28;20203;-37
2020/12/18 02:13:11;;;;;;;6.50;4.13;;;;;;;7.86;100.00;100962.81;5097392;28;20227;-39
2020/12/18 02:15:56;;;;;;;5.40;3.97;;;;;;;7.87;100.00;100964.56;5097034;28;20199;-38
2020/12/18 02:18:42;;;;;;;6.33;4.20;;;;;;;7.95;100.00;100950.94;5097222;28;20357;-37
2020/12/18 02:21:28;;;;;;;6.07;4.10;;;;;;;8.17;100.00;100946.06;5097167;28;20256;-39
2020/12/18 02:24:24;;;;;;;5.80;5.23;;;;;;;8.05;100.00;100956.19;5096665;28;20202;-33
2020/12/18 02:27:11;;;;;;;10.13;4.63;;;;;;;8.17;100.00;100949.50;5097170;28;20199;-37
2020/12/18 02:29:57;;;;;;;4.23;3.53;;;;;;;8.00;100.00;100952.69;5097489;28;20199;-33
2020/12/18 02:32:43;;;;;;;7.83;3.90;;;;;;;8.07;100.00;100950.22;5096930;28;20224;-33
2020/12/18 02:35:28;;;;;;;4.83;3.70;;;;;;;8.09;100.00;100940.81;5097152;28;20290;-34
2020/12/18 02:38:13;;;;;;;5.37;3.77;;;;;;;8.31;100.00;100936.78;5096670;28;20239;-36
2020/12/18 02:40:59;;;;;;;6.03;3.93;;;;;;;8.17;100.00;100933.16;5097056;28;20200;-36
2020/12/18 02:43:46;;;;;;;7.90;3.70;;;;;;;8.46;100.00;100933.53;5096813;28;20266;-34
2020/12/18 02:46:32;;;;;;;5.73;3.40;;;;;;;8.23;100.00;100926.34;5096944;28;20596;-34
2020/12/18 02:49:18;;;;;;;6.57;3.13;;;;;;;8.30;100.00;100923.00;5096625;28;20201;-35
2020/12/18 02:52:04;;;;;;;7.50;3.40;;;;;;;8.40;100.00;100929.16;5096539;28;20192;-34
2020/12/18 02:54:52;;;;;;;5.73;3.20;;;;;;;8.51;100.00;100921.53;5096547;28;20208;-37
2020/12/18 02:57:38;;;;;;;6.57;3.53;;;;;;;8.46;100.00;100925.78;5096886;28;20337;-35
2020/12/18 03:00:24;;;;;;;9.23;3.10;;;;;;;8.54;100.00;100926.75;5097035;28;20273;-35
2020/12/18 03:03:10;;;;;;;6.40;3.00;;;;;;;8.32;100.00;100932.47;5100688;28;20612;-37
2020/12/18 03:05:55;;;;;;;4.77;3.10;;;;;;;8.37;100.00;100933.44;5100906;28;20355;-33
2020/12/18 03:08:41;;;;;;;6.17;3.27;;;;;;;8.19;100.00;100929.75;5100465;28;20191;-36
2020/12/18 03:11:27;;;;;;;4.77;3.20;;;;;;;8.17;100.00;100925.44;5100892;28;20290;-37
2020/12/18 03:14:12;;;;;;;4.47;3.47;;;;;;;8.17;100.00;100930.59;5100192;28;20357;-34
2020/12/18 03:16:59;;;;;;;4.83;3.27;;;;;;;8.06;100.00;100932.16;5100678;28;20342;-38
2020/12/18 03:19:45;;;;;;;7.63;3.40;;;;;;;8.02;100.00;100938.97;5100219;28;20300;-35
2020/12/18 03:22:31;;;;;;;7.53;3.80;;;;;;;7.91;100.00;100935.41;5099996;28;20592;-35
2020/12/18 03:25:17;;;;;;;5.97;3.30;;;;;;;7.95;100.00;100939.78;5099443;28;20211;-36
2020/12/18 03:28:04;;;;;;;4.10;3.33;;;;;;;7.88;100.00;100937.94;5100019;28;20350;-36
2020/12/18 03:30:49;;;;;;;7.07;3.33;;;;;;;7.86;100.00;100945.66;5100233;28;20203;-33
2020/12/18 03:33:36;;;;;;;7.37;4.00;;;;;;;7.68;100.00;100936.81;5100106;28;20250;-36
2020/12/18 03:36:22;;;;;;;6.13;3.33;;;;;;;7.85;100.00;100937.91;5099769;28;20200;-35
2020/12/18 03:39:08;;;;;;;8.40;3.40;;;;;;;7.67;100.00;100943.66;5099769;28;20230;-34
2020/12/18 03:41:54;;;;;;;9.00;3.80;;;;;;;7.66;100.00;100947.09;5099917;28;20207;-34
2020/12/18 03:44:39;;;;;;;7.47;3.70;;;;;;;7.47;100.00;100940.81;5099835;28;20220;-32
2020/12/18 03:47:25;;;;;;;8.40;3.77;;;;;;;7.64;100.00;100942.75;5099687;28;20231;-35
2020/12/18 03:50:12;;;;;;;6.43;3.97;;;;;;;7.55;100.00;100940.94;5099869;28;20203;-35
2020/12/18 03:52:57;;;;;;;8.90;4.17;;;;;;;7.61;100.00;100947.00;5099173;28;20214;-36
2020/12/18 03:55:43;;;;;;;6.80;3.57;;;;;;;7.56;100.00;100950.38;5099448;28;20291;-32
2020/12/18 03:58:29;;;;;;;9.57;3.87;;;;;;;7.44;100.00;100947.63;5099475;28;20250;-36
2020/12/18 04:01:15;;;;;;;7.53;3.43;;;;;;;7.56;100.00;100942.66;5099670;28;20195;-34
2020/12/18 04:04:01;;;;;;;5.73;4.10;;;;;;;7.51;100.00;100944.31;5098915;28;20199;-34
2020/12/18 04:06:48;;;;;;;8.57;3.57;;;;;;;7.48;100.00;100949.41;5099473;28;20195;-36
2020/12/18 04:09:34;;;;;;;7.47;3.40;;;;;;;7.33;100.00;100944.03;5099259;28;20253;-33
2020/12/18 04:12:20;;;;;;;6.97;3.43;;;;;;;7.28;100.00;100943.09;5098387;28;20352;-34
2020/12/18 04:15:05;;;;;;;4.07;2.93;;;;;;;7.23;100.00;100946.44;5099456;28;20211;-32
2020/12/18 04:17:51;;;;;;;10.67;3.63;;;;;;;7.35;100.00;100947.50;5099009;28;20199;-35
2020/12/18 04:20:37;;;;;;;3.40;2.93;;;;;;;7.20;100.00;100936.09;5099396;28;20202;-35
2020/12/18 04:23:38;;;;;;;8.30;3.37;;;;;;;7.18;100.00;100944.66;5099206;28;20242;-36
2020/12/18 04:26:23;;;;;;;8.47;3.30;;;;;;;7.15;100.00;100942.03;5099045;28;20195;-38
2020/12/18 04:29:09;;;;;;;6.77;3.53;;;;;;;7.24;100.00;100937.03;5099172;28;20199;-35
2020/12/18 04:31:55;;;;;;;5.83;3.57;;;;;;;7.20;100.00;100936.09;5099072;28;20545;-36
2020/12/18 04:34:40;;;;;;;4.03;3.20;;;;;;;7.17;100.00;100935.22;5098693;28;20360;-36
2020/12/18 04:37:26;;;;;;;6.83;3.37;;;;;;;7.26;100.00;100931.06;5098583;28;20217;-34
2020/12/18 04:40:13;;;;;;;11.30;3.80;;;;;;;7.26;100.00;100935.34;5098064;28;20274;-33
2020/12/18 04:43:01;;;;;;;4.80;2.97;;;;;;;7.29;100.00;100926.81;5097877;28;20475;-36
2020/12/18 04:45:47;;;;;;;10.83;3.00;;;;;;;7.21;100.00;100930.13;5098631;28;20480;-37
2020/12/18 04:48:36;;;;;;;7.23;2.90;;;;;;;7.23;100.00;100931.00;5098610;28;20199;-35
2020/12/18 04:51:24;;;;;;;6.67;3.20;;;;;;;7.11;100.00;100925.69;5098228;28;20205;-35
2020/12/18 04:54:11;;;;;;;9.57;3.10;;;;;;;7.06;100.00;100926.44;5097633;28;20230;-35
2020/12/18 04:56:59;;;;;;;4.70;3.30;;;;;;;7.11;100.00;100929.94;5098166;28;20203;-33
2020/12/18 04:59:49;;;;;;;5.97;3.40;;;;;;;7.33;100.00;100921.72;5098601;28;20289;-35
2020/12/18 05:02:35;;;;;;;6.10;3.30;;;;;;;7.10;100.00;100918.81;5098435;28;20199;-35
2020/12/18 05:05:20;;;;;;;4.70;3.17;;;;;;;7.17;100.00;100919.78;5098266;28;20199;-34
2020/12/18 05:08:06;;;;;;;7.17;3.20;;;;;;;7.08;100.00;100914.47;5098508;28;20199;-34
2020/12/18 05:10:52;;;;;;;4.10;3.53;;;;;;;7.15;100.00;100918.88;5098227;28;20269;-37
2020/12/18 05:13:38;;;;;;;7.10;3.57;;;;;;;7.11;100.00;100917.09;5098116;28;20533;-36
2020/12/18 05:16:24;;;;;;;3.30;3.00;;;;;;;7.04;100.00;100918.69;5098030;28;20195;-34
2020/12/18 05:19:12;;;;;;;5.63;3.47;;;;;;;6.88;100.00;100917.59;5098087;28;20221;-35
2020/12/18 05:22:01;;;;;;;5.63;3.07;;;;;;;7.07;100.00;100923.03;5098040;28;20203;-36
2020/12/18 05:24:48;;;;;;;11.37;3.70;;;;;;;7.09;100.00;100921.34;5097201;28;20191;-36
2020/12/18 05:27:34;;;;;;;4.70;3.30;;;;;;;7.02;100.00;100915.22;5097567;28;20199;-33
2020/12/18 05:30:22;;;;;;;7.57;3.20;;;;;;;7.06;100.00;100922.16;5098098;28;20211;-36
2020/12/18 05:33:08;;;;;;;4.13;3.13;;;;;;;7.03;100.00;100919.53;5097593;28;20281;-38
2020/12/18 05:35:54;;;;;;;7.83;3.47;;;;;;;7.02;100.00;100922.94;5097527;28;20344;-34
2020/12/18 05:38:42;;;;;;;5.63;3.07;;;;;;;6.94;100.00;100921.09;5097471;28;20238;-36
2020/12/18 05:41:28;;;;;;;12.23;4.27;;;;;;;7.00;100.00;100928.91;5097482;28;20611;-36
2020/12/18 05:44:13;;;;;;;8.13;3.30;;;;;;;7.01;100.00;100921.22;5097148;28;20620;-37
2020/12/18 05:47:04;;;;;;;6.10;3.50;;;;;;;6.99;100.00;100922.06;5097697;28;20238;-37
2020/12/18 05:49:50;;;;;;;7.73;3.53;;;;;;;7.00;100.00;100926.31;5097296;28;20195;-37
2020/12/18 05:52:36;;;;;;;7.53;3.73;;;;;;;6.96;100.00;100925.44;5097237;28;20575;-36
2020/12/18 05:55:22;;;;;;;11.50;4.13;;;;;;;7.01;100.00;100915.19;5097200;28;20203;-38
2020/12/18 05:58:12;;;;;;;7.90;4.07;;;;;;;7.04;100.00;100923.84;5097244;28;20277;-37
2020/12/18 06:01:04;;;;;;;11.43;4.40;;;;;;;7.09;100.00;100919.63;5097264;28;20199;-35
2020/12/18 06:03:57;;;;;;;10.23;3.83;;;;;;;7.06;100.00;100911.00;5097380;28;20199;-36
2020/12/18 06:06:46;;;;;;;7.50;3.10;;;;;;;7.09;100.00;100921.34;5096850;28;20198;-36
2020/12/18 06:09:34;;;;;;;5.53;3.13;;;;;;;7.05;100.00;100919.56;5095861;28;20205;-33
2020/12/18 06:12:22;;;;;;;9.77;4.40;;;;;;;7.05;100.00;100932.41;5096444;28;20199;-35
2020/12/18 06:15:08;;;;;;;8.27;4.90;;;;;;;6.85;100.00;100930.38;5095652;28;20551;-38
2020/12/18 06:17:55;;;;;;;10.13;4.07;;;;;;;6.98;100.00;100918.63;5094173;28;20202;-35
2020/12/18 06:20:44;;;;;;;8.77;4.10;;;;;;;6.85;100.00;100917.53;5097495;28;20230;-34
2020/12/18 06:23:29;;;;;;;6.47;3.63;;;;;;;6.88;100.00;100924.44;5097114;28;20199;-33
2020/12/18 06:26:20;;;;;;;12.20;4.57;;;;;;;6.94;100.00;100924.53;5096868;28;20199;-37
2020/12/18 06:29:07;;;;;;;8.17;4.27;;;;;;;6.84;100.00;100914.94;5096753;28;20207;-34
2020/12/18 06:31:53;;;;;;;7.07;4.60;;;;;;;6.82;100.00;100920.03;5096642;28;20202;-38
2020/12/18 06:34:44;;;;;;;11.17;4.27;;;;;;;6.90;100.00;100915.03;5096874;28;20308;-36
2020/12/18 06:37:40;;;;;;;8.23;3.93;;;;;;;6.88;100.00;100917.59;5100164;28;20281;-39
2020/12/18 06:40:32;;;;;;;7.57;4.53;;;;;;;6.89;100.00;100910.72;5100502;28;20199;-34
2020/12/18 06:43:33;;;;;;;10.17;4.83;;;;;;;6.86;100.00;100910.69;5100711;28;20199;-36
2020/12/18 06:46:20;;;;;;;8.40;4.80;;;;;;;6.89;100.00;100906.44;5100708;28;20191;-37
2020/12/18 06:49:05;;;;;;;9.53;5.43;;;;;;;6.91;100.00;100907.34;5100668;28;20203;-39
2020/12/18 06:51:51;;;;;;;10.57;4.50;;;;;;;7.00;100.00;100901.47;5100600;28;20203;-36
2020/12/18 06:54:56;;;;;;;8.63;4.40;;;;;;;7.05;100.00;100909.28;5100613;28;20265;-35
2020/12/18 06:57:42;;;;;;;9.73;4.30;;;;;;;6.88;100.00;100909.00;5100069;28;20194;-34
2020/12/18 07:00:32;;;;;;;8.63;4.30;;;;;;;7.05;100.00;100909.28;5100413;28;20195;-35
2020/12/18 07:03:36;;;;;;;14.17;5.90;;;;;;;6.96;100.00;100904.88;5100173;28;20472;-33
2020/12/18 07:06:23;;;;;;;8.77;4.77;;;;;;;6.90;100.00;100897.91;5099748;28;20195;-33
2020/12/18 07:09:09;;;;;;;8.00;3.97;;;;;;;7.02;100.00;100898.94;5099959;28;20291;-36
2020/12/18 07:12:02;;;;;;;14.30;4.63;;;;;;;6.91;100.00;100898.75;5099590;28;20337;-39
2020/12/18 07:14:49;;;;;;;8.77;4.70;;;;;;;6.84;100.00;100905.50;5100065;28;20259;-33
2020/12/18 07:17:44;;;;;;;7.57;3.97;;;;;;;6.91;100.00;100897.06;5100429;28;20195;-33
2020/12/18 07:20:30;;;;;;;11.30;5.87;;;;;;;6.96;100.00;100893.72;5093343;28;20533;-38
2020/12/18 07:23:20;;;;;;;9.03;5.53;;;;;;;6.98;100.00;100900.59;5083828;28;20490;-36
2020/12/18 07:26:07;;;;;;;9.23;5.23;;;;;;;6.99;100.00;100899.78;5100015;28;20211;-36
2020/12/18 07:28:54;;;;;;;9.90;7.53;;;;;;;7.12;100.00;100904.25;5099895;28;20601;-33
2020/12/18 07:31:40;;;;;;;8.70;5.83;;;;;;;7.03;100.00;100911.81;5099187;28;20644;-41
2020/12/18 07:34:25;;;;;;;5.60;4.77;;;;;;;7.11;100.00;100906.81;5099232;28;20284;-36
2020/12/18 07:37:12;;;;;;;8.50;4.60;;;;;;;7.12;100.00;100896.53;5099431;28;20579;-33
2020/12/18 07:39:58;;;;;;;7.77;3.60;;;;;;;7.10;100.00;100895.66;5099472;28;20195;-35
2020/12/18 07:42:44;;;;;;;7.17;3.63;;;;;;;7.16;100.00;100893.19;5099755;28;20350;-33
2020/12/18 07:45:30;;;;;;;10.43;4.27;;;;;;;7.16;100.00;100897.47;5098433;28;20203;-36
2020/12/18 07:48:17;;;;;;;8.90;4.03;;;;;;;7.19;100.00;100890.63;5098388;28;20211;-33
2020/12/18 07:51:06;;;;;;;8.33;3.37;;;;;;;7.18;100.00;100890.63;5098997;28;20195;-37
2020/12/18 07:53:53;;;;;;;6.03;3.57;;;;;;;7.22;100.00;100885.53;5098753;28;20655;-35
2020/12/18 07:56:39;;;;;;;7.77;3.87;;;;;;;7.21;100.00;100885.50;5098985;28;20234;-36
2020/12/18 07:59:25;;;;;;;9.53;4.13;;;;;;;7.32;100.00;100883.09;5098751;28;20643;-33
2020/12/18 08:02:21;;;;;;;6.17;3.60;;;;;;;7.41;100.00;100896.09;5099055;28;20196;-36
2020/12/18 08:05:07;;;;;;;6.30;3.43;;;;;;;7.40;100.00;100882.34;5098640;28;20609;-36
2020/12/18 08:07:58;;;;;;;7.60;3.70;;;;;;;7.23;100.00;100884.69;5098586;28;20300;-38
2020/12/18 08:10:44;;;;;;;7.37;4.10;;;;;;;7.38;100.00;100883.19;5098591;28;20683;-38
2020/12/18 08:13:31;;;;;;;6.67;3.10;;;;;;;7.51;100.00;100873.09;5097847;28;20226;-35
2020/12/18 08:16:19;;;;;;;7.37;3.67;;;;;;;7.99;100.00;100878.84;5098473;28;20207;-34
2020/12/18 08:19:07;;;;;;;5.70;3.53;;;;;;;7.80;100.00;100875.16;5086525;28;20271;-36
2020/12/18 08:21:56;;;;;;;5.13;3.27;;;;;;;7.72;100.00;100880.22;5078788;28;20193;-35
2020/12/18 08:24:44;;;;;;;9.47;3.67;;;;;;;7.77;100.00;100885.44;5090809;28;20319;-33
2020/12/18 08:27:36;;;;;;;8.43;3.37;;;;;;;7.88;100.00;100887.28;5099096;28;20195;-34
2020/12/18 08:30:25;;;;;;;10.17;3.67;;;;;;;7.94;100.00;100886.53;5098762;28;20254;-33
2020/12/18 08:33:12;;;;;;;7.23;3.50;;;;;;;7.88;100.00;100879.56;5098620;28;20577;-33
2020/12/18 08:35:59;;;;;;;6.03;3.40;;;;;;;7.93;100.00;100872.78;5098481;28;20245;-35
2020/12/18 08:39:06;;;;;;;5.40;3.10;;;;;;;7.95;100.00;100868.50;5098362;28;20381;-39
2020/12/18 08:41:54;;;;;;;5.20;2.87;;;;;;;7.95;100.00;100865.06;5078193;28;20311;-36
2020/12/18 08:44:41;;;;;;;10.57;3.90;;;;;;;7.87;100.00;100870.13;5094104;28;20207;-36
2020/12/18 08:47:30;;;;;;;14.13;9.87;;;;;;;8.29;100.00;100872.31;5098060;28;20200;-34
2020/12/18 08:50:18;;;;;;;9.80;6.80;;;;;;;8.38;100.00;100874.16;5097774;28;20202;-34
2020/12/18 08:53:18;;;;;;;9.90;6.00;;;;;;;8.35;100.00;100879.28;5097431;28;20615;-38
2020/12/18 08:56:25;;;;;;;7.10;3.73;;;;;;;8.03;100.00;100885.75;5097728;28;20219;-39
2020/12/18 08:59:15;;;;;;;6.13;4.67;;;;;;;8.37;100.00;100885.31;5096186;28;20214;-38
2020/12/18 09:02:01;;;;;;;6.23;4.03;;;;;;;8.31;100.00;100877.47;5096526;28;20200;-37
2020/12/18 09:04:47;;;;;;;9.03;4.77;;;;;;;8.21;100.00;100889.38;5097005;28;20201;-35
2020/12/18 09:07:40;;;;;;;7.17;5.93;;;;;;;8.25;100.00;100882.56;5092666;28;20205;-38
2020/12/18 09:10:35;;;;;;;6.53;3.50;;;;;;;8.36;100.00;100875.84;5097344;28;20250;-35
2020/12/18 09:13:22;;;;;;;5.53;3.50;;;;;;;8.34;100.00;100868.94;5097076;28;20434;-35
2020/12/18 09:16:08;;;;;;;7.77;3.43;;;;;;;8.61;100.00;100877.78;5097449;28;20235;-39
2020/12/18 09:18:59;;;;;;;5.03;3.30;;;;;;;8.82;100.00;100877.13;5096767;28;20252;-35
2020/12/18 09:21:45;;;;;;;10.43;4.37;;;;;;;8.74;100.00;100883.09;5097076;28;20203;-35
2020/12/18 09:24:30;;;;;;;8.20;6.03;;;;;;;8.86;100.00;100888.34;5096672;28;20389;-35
2020/12/18 09:27:17;;;;;;;12.97;5.47;;;;;;;8.89;100.00;100893.53;5096999;28;20207;-39
2020/12/18 09:30:06;;;;;;;12.20;7.60;;;;;;;8.90;100.00;100900.41;5096654;28;20296;-37
2020/12/18 09:33:18;;;;;;;15.30;7.00;;;;;;;9.09;100.00;100891.97;5096573;28;20207;-33
2020/12/18 09:36:12;;;;;;;24.40;17.73;;;;;;;9.40;100.00;100892.16;5096560;28;20253;-37
2020/12/18 09:38:58;;;;;;;7.87;6.00;;;;;;;9.48;100.00;100895.66;5096326;28;20595;-34
2020/12/18 09:41:43;;;;;;;8.77;4.70;;;;;;;9.37;100.00;100898.19;5096709;28;20482;-37
2020/12/18 09:44:30;;;;;;;7.63;3.00;;;;;;;9.71;100.00;100903.56;5097067;28;20206;-36
2020/12/18 09:47:16;;;;;;;7.07;2.67;;;;;;;9.86;100.00;100898.44;5096333;28;20314;-34
2020/12/18 09:50:02;;;;;;;5.03;2.60;;;;;;;9.91;100.00;100900.22;5096846;28;20223;-33
2020/12/18 09:52:47;;;;;;;4.03;2.60;;;;;;;9.51;100.00;100898.28;5096319;28;20191;-35
2020/12/18 09:55:33;;;;;;;3.67;2.43;;;;;;;9.48;100.00;100895.66;5076793;28;20219;-36
2020/12/18 09:58:21;;;;;;;4.67;3.13;;;;;;;9.73;100.00;100892.38;5076625;28;20330;-35
2020/12/18 10:01:08;;;;;;;5.10;3.10;;;;;;;9.65;100.00;100894.91;5076406;28;20223;-34
2020/12/18 10:03:56;;;;;;;8.27;3.33;;;;;;;10.17;100.00;100897.72;5077007;28;20637;-35
2020/12/18 10:06:42;;;;;;;3.53;2.40;;;;;;;9.99;100.00;100893.31;5076214;28;20200;-35
2020/12/18 10:09:29;;;;;;;7.80;3.40;;;;;;;10.58;100.00;100900.44;5089911;28;20195;-36
2020/12/18 10:12:15;;;;;;;7.50;2.60;;;;;;;10.83;100.00;100908.22;5100452;28;20304;-38
2020/12/18 10:15:05;;;;;;;2.97;2.20;;;;;;;10.75;100.00;100910.81;5100427;28;20652;-39
2020/12/18 10:17:58;;;;;;;4.53;2.20;;;;;;;10.38;100.00;100899.53;5080413;28;20598;-38
2020/12/18 10:20:44;;;;;;;3.43;2.13;;;;;;;11.32;100.00;100906.50;5080466;28;20196;-40
2020/12/18 10:23:32;;;;;;;3.93;2.17;;;;;;;10.78;100.00;100908.25;5092573;28;20382;-39
2020/12/18 10:26:19;;;;;;;5.13;2.77;;;;;;;10.83;100.00;100901.31;5100842;28;20287;-37
2020/12/18 10:29:06;;;;;;;23.40;9.33;;;;;;;10.86;100.00;100897.88;5101090;28;20245;-40
2020/12/18 10:31:52;;;;;;;5.07;2.53;;;;;;;10.75;100.00;100903.06;5100113;28;20194;-36
2020/12/18 10:34:40;;;;;;;6.20;4.20;;;;;;;10.55;100.00;100903.03;5100348;28;20230;-38
2020/12/18 10:37:29;;;;;;;7.03;3.10;;;;;;;10.58;100.00;100908.22;5099690;28;20244;-34
2020/12/18 10:40:19;;;;;;;3.07;2.70;;;;;;;10.97;100.00;100906.50;5099971;28;20270;-32
2020/12/18 10:43:05;;;;;;;5.73;2.47;;;;;;;11.46;100.00;100907.31;5099059;28;20617;-34
2020/12/18 10:45:51;;;;;;;5.17;3.20;;;;;;;11.05;100.00;100902.19;5100577;28;20231;-36
2020/12/18 10:48:40;;;;;;;4.73;3.63;;;;;;;10.99;100.00;100909.97;5100105;28;20497;-35
2020/12/18 10:51:32;;;;;;;3.73;2.23;;;;;;;11.44;100.00;100900.41;5099855;28;20218;-34
2020/12/18 10:54:17;;;;;;;3.77;3.33;;;;;;;12.20;100.00;100898.44;5099825;28;20258;-36
2020/12/18 10:57:03;;;;;;;4.17;2.80;;;;;;;11.40;100.00;100910.78;5093610;28;20222;-39
2020/12/18 10:59:53;;;;;;;5.67;2.10;;;;;;;12.37;100.00;100906.16;5099499;28;20818;-34
2020/12/18 11:02:39;;;;;;;3.50;2.10;;;;;;;12.17;100.00;100901.06;5100204;28;20196;-36
2020/12/18 11:05:26;;;;;;;6.60;2.30;;;;;;;12.69;100.00;100903.34;5099736;28;20199;-36
2020/12/18 11:08:13;;;;;;;6.37;1.90;;;;;;;12.10;100.00;100899.38;5099435;28;20207;-36
2020/12/18 11:11:01;;;;;;;2.53;1.70;;;;;;;11.41;100.00;100903.88;5114692;28;20223;-36
2020/12/18 11:13:47;;;;;;;2.47;1.80;;;;;;;12.01;100.00;100905.44;5119927;28;20198;-36
2020/12/18 11:16:33;;;;;;;8.10;2.10;;;;;;;11.98;100.00;100902.03;5119629;28;20481;-37
2020/12/18 11:19:19;;;;;;;3.20;1.57;;;;;;;12.51;100.00;100898.28;5119234;28;20202;-36
2020/12/18 11:22:07;;;;;;;5.00;1.90;;;;;;;12.01;100.00;100896.81;5118740;28;20308;-36
2020/12/18 11:24:53;;;;;;;2.90;1.90;;;;;;;11.82;100.00;100896.00;5119788;28;20291;-38
2020/12/18 11:27:42;;;;;;;3.60;2.67;;;;;;;11.59;100.00;100892.63;5120476;28;20205;-38
2020/12/18 11:30:28;;;;;;;4.40;1.73;;;;;;;11.22;100.00;100900.44;5119904;28;20532;-37
2020/12/18 11:33:13;;;;;;;5.20;1.97;;;;;;;11.26;100.00;100894.41;5120551;28;20623;-36
2020/12/18 11:35:59;;;;;;;3.17;1.53;;;;;;;11.18;100.00;100890.97;5119944;28;20490;-40
2020/12/18 11:38:46;;;;;;;2.13;1.63;;;;;;;11.17;100.00;100897.00;5119880;28;20254;-36
2020/12/18 11:41:40;;;;;;;5.60;2.00;;;;;;;11.22;100.00;100879.72;5105580;28;20204;-37
2020/12/18 11:44:31;;;;;;;3.47;1.87;;;;;;;11.18;100.00;100878.03;5078665;28;20298;-35
2020/12/18 11:47:17;;;;;;;3.07;1.90;;;;;;;11.10;100.00;100879.75;5078706;28;20374;-36
2020/12/18 11:50:04;;;;;;;9.00;2.20;;;;;;;11.28;100.00;100881.44;5078098;28;20603;-35
2020/12/18 11:52:49;;;;;;;7.70;2.13;;;;;;;11.53;100.00;100880.53;5077967;28;20204;-36
2020/12/18 11:55:36;;;;;;;3.10;1.80;;;;;;;12.08;100.00;100865.66;5094016;28;20223;-35
2020/12/18 11:58:27;;;;;;;2.47;1.70;;;;;;;11.91;100.00;100861.44;5098475;28;20206;-40
2020/12/18 12:01:21;;;;;;;7.60;1.87;;;;;;;12.02;100.00;100857.91;5088086;28;20212;-35
2020/12/18 12:04:12;;;;;;;3.53;2.00;;;;;;;12.42;100.00;100849.88;5079283;28;20491;-35
2020/12/18 12:06:58;;;;;;;2.50;1.97;;;;;;;12.26;100.00;100859.50;5078431;28;20196;-38
2020/12/18 12:09:44;;;;;;;7.40;2.20;;;;;;;12.09;100.00;100848.38;5078813;28;20258;-37
2020/12/18 12:12:29;;;;;;;4.10;2.03;;;;;;;12.35;100.00;100851.69;5078423;28;20192;-35
2020/12/18 12:15:17;;;;;;;6.73;2.23;;;;;;;12.36;100.00;100850.81;5078065;28;20299;-36
2020/12/18 12:18:07;;;;;;;3.17;1.67;;;;;;;12.85;100.00;100842.63;5078603;28;20306;-38
2020/12/18 12:21:01;;;;;;;1.67;1.40;;;;;;;12.85;100.00;100840.03;5078398;28;20298;-36
2020/12/18 12:23:49;;;;;;;4.67;1.33;;;;;;;13.25;95.95;100843.16;5097374;28;20198;-37
2020/12/18 12:26:35;;;;;;;1.43;1.20;;;;;;;13.13;98.43;100834.59;5098154;28;20198;-38
2020/12/18 12:29:21;;;;;;;3.67;1.40;;;;;;;12.52;97.51;100827.34;5097149;28;20191;-38
2020/12/18 12:32:09;;;;;;;2.67;1.20;;;;;;;12.77;98.51;100828.88;5097007;28;20207;-38
2020/12/18 12:34:55;;;;;;;3.47;1.20;;;;;;;13.23;95.01;100826.72;5096275;28;20227;-34
2020/12/18 12:37:41;;;;;;;2.03;1.27;;;;;;;13.23;92.24;100820.66;5097366;28;20203;-37
2020/12/18 12:40:26;;;;;;;5.13;2.00;;;;;;;13.28;91.33;100824.94;5097528;28;20605;-38
2020/12/18 12:43:12;;;;;;;1.83;1.23;;;;;;;14.09;85.47;100829.13;5098011;28;20210;-38
2020/12/18 12:45:58;;;;;;;1.87;1.20;;;;;;;14.68;83.34;100825.66;5098097;28;20222;-38
2020/12/18 12:48:44;;;;;;;2.37;1.20;;;;;;;14.19;85.25;100819.47;5084999;28;20259;-38
2020/12/18 12:51:30;;;;;;;2.07;1.33;;;;;;;13.53;85.99;100816.88;5076690;28;20197;-36
2020/12/18 12:54:18;;;;;;;2.53;1.43;;;;;;;13.53;89.12;100822.06;5076487;28;20338;-39
2020/12/18 12:57:04;;;;;;;2.73;1.53;;;;;;;13.51;84.74;100821.22;5076834;28;20507;-36